createdAt,value
2022-08-14T00:00:12.279Z,0.00
2022-08-14T00:01:12.325Z,0.00
2022-08-14T00:02:11.990Z,0.00
2022-08-14T00:03:11.970Z,0.00
2022-08-14T00:04:34.520Z,0.00
2022-08-14T00:05:11.980Z,0.00
2022-08-14T00:06:25.807Z,0.00
2022-08-14T00:07:14.229Z,0.00
2022-08-14T00:08:14.175Z,0.00
2022-08-14T00:09:11.925Z,0.00
2022-08-14T00:10:51.844Z,0.00
2022-08-14T00:11:11.905Z,0.00
2022-08-14T00:12:23.622Z,0.00
2022-08-14T00:13:12.798Z,0.00
2022-08-14T00:14:11.873Z,0.00
2022-08-14T00:15:11.874Z,0.00
2022-08-14T00:16:11.855Z,0.00
2022-08-14T00:17:11.850Z,0.00
2022-08-14T00:18:14.422Z,0.00
2022-08-14T00:19:19.120Z,0.00
2022-08-14T00:20:11.850Z,0.00
2022-08-14T00:21:11.816Z,0.00
2022-08-14T00:22:11.800Z,0.00
2022-08-14T00:23:14.492Z,0.00
2022-08-14T00:24:11.785Z,0.00
2022-08-14T00:25:11.779Z,0.00
2022-08-14T00:26:21.979Z,0.00
2022-08-14T00:27:11.768Z,0.00
2022-08-14T00:28:15.443Z,0.00
2022-08-14T00:29:11.746Z,0.00
2022-08-14T00:30:14.237Z,0.00
2022-08-14T00:31:11.727Z,0.00
2022-08-14T00:32:52.914Z,0.00
2022-08-14T00:33:16.245Z,0.00
2022-08-14T00:34:35.204Z,0.00
2022-08-14T00:35:11.690Z,0.00
2022-08-14T00:36:37.372Z,0.00
2022-08-14T00:37:11.670Z,0.00
2022-08-14T00:38:11.686Z,0.00
2022-08-14T00:39:11.668Z,0.00
2022-08-14T00:40:27.530Z,0.00
2022-08-14T00:41:11.648Z,0.00
2022-08-14T00:42:52.629Z,0.00
2022-08-14T00:43:11.618Z,0.00
2022-08-14T00:44:11.677Z,0.00
2022-08-14T00:45:11.610Z,0.00
2022-08-14T00:46:33.297Z,0.00
2022-08-14T00:47:11.597Z,0.00
2022-08-14T00:48:11.571Z,0.00
2022-08-14T00:49:14.482Z,0.00
2022-08-14T00:50:11.609Z,0.00
2022-08-14T00:51:11.548Z,0.00
2022-08-14T00:52:14.242Z,0.00
2022-08-14T00:53:11.530Z,0.00
2022-08-14T00:54:21.148Z,0.00
2022-08-14T00:55:11.514Z,0.00
2022-08-14T00:56:14.190Z,0.00
2022-08-14T00:57:11.491Z,0.00
2022-08-14T00:58:11.493Z,0.00
2022-08-14T00:59:11.473Z,0.00
2022-08-14T01:00:34.484Z,0.00
2022-08-14T01:01:11.484Z,0.00
2022-08-14T01:02:11.448Z,0.00
2022-08-14T01:03:11.438Z,0.00
2022-08-14T01:04:37.780Z,0.00
2022-08-14T01:05:11.425Z,0.00
2022-08-14T01:06:11.415Z,0.00
2022-08-14T01:07:11.404Z,0.00
2022-08-14T01:08:20.622Z,0.00
2022-08-14T01:09:11.393Z,0.00
2022-08-14T01:10:11.405Z,0.00
2022-08-14T01:11:11.368Z,0.00
2022-08-14T01:12:11.355Z,0.00
2022-08-14T01:13:11.351Z,0.00
2022-08-14T01:14:25.225Z,0.00
2022-08-14T01:15:14.846Z,0.00
2022-08-14T01:16:11.320Z,0.00
2022-08-14T01:17:11.316Z,0.00
2022-08-14T01:18:11.304Z,0.00
2022-08-14T01:19:11.298Z,0.00
2022-08-14T01:20:18.313Z,0.00
2022-08-14T01:21:11.360Z,0.00
2022-08-14T01:22:12.752Z,0.00
2022-08-14T01:23:16.855Z,0.00
2022-08-14T01:24:11.248Z,0.00
2022-08-14T01:25:11.245Z,0.00
2022-08-14T01:26:11.618Z,0.00
2022-08-14T01:27:11.252Z,0.00
2022-08-14T01:28:11.419Z,0.00
2022-08-14T01:29:16.171Z,0.00
2022-08-14T01:30:11.195Z,0.00
2022-08-14T01:31:11.194Z,0.00
2022-08-14T01:32:11.177Z,0.00
2022-08-14T01:33:11.230Z,0.00
2022-08-14T01:35:20.041Z,0.00
2022-08-14T01:35:20.920Z,0.00
2022-08-14T01:36:20.919Z,0.00
2022-08-14T01:37:11.137Z,0.00
2022-08-14T01:38:11.135Z,0.00
2022-08-14T01:39:13.312Z,0.00
2022-08-14T01:40:11.159Z,0.00
2022-08-14T01:41:11.899Z,0.00
2022-08-14T01:42:11.086Z,0.00
2022-08-14T01:43:11.540Z,0.00
2022-08-14T01:44:33.315Z,0.00
2022-08-14T01:45:11.089Z,0.00
2022-08-14T01:46:11.105Z,0.00
2022-08-14T01:47:11.638Z,0.00
2022-08-14T01:48:13.855Z,0.00
2022-08-14T01:49:11.026Z,0.00
2022-08-14T01:50:11.017Z,0.00
2022-08-14T01:51:20.273Z,0.00
2022-08-14T01:52:13.460Z,0.00
2022-08-14T01:53:10.989Z,0.00
2022-08-14T01:54:10.980Z,0.00
2022-08-14T01:55:10.983Z,0.00
2022-08-14T01:56:12.184Z,0.00
2022-08-14T01:57:10.955Z,0.00
2022-08-14T01:58:20.401Z,0.00
2022-08-14T01:59:14.721Z,0.00
2022-08-14T02:00:10.926Z,0.00
2022-08-14T02:01:10.991Z,0.00
2022-08-14T02:02:10.908Z,0.00
2022-08-14T02:03:10.904Z,0.00
2022-08-14T02:04:40.434Z,0.00
2022-08-14T02:05:10.906Z,0.00
2022-08-14T02:06:33.437Z,0.00
2022-08-14T02:07:15.511Z,0.00
2022-08-14T02:08:10.855Z,0.00
2022-08-14T02:09:22.261Z,0.00
2022-08-14T02:10:13.201Z,0.00
2022-08-14T02:11:10.855Z,0.00
2022-08-14T02:12:10.814Z,0.00
2022-08-14T02:13:10.807Z,0.00
2022-08-14T02:14:10.800Z,0.00
2022-08-14T02:15:10.792Z,0.00
2022-08-14T02:16:21.828Z,0.00
2022-08-14T02:17:10.777Z,0.00
2022-08-14T02:18:11.821Z,0.00
2022-08-14T02:19:10.753Z,0.00
2022-08-14T02:20:10.741Z,0.00
2022-08-14T02:21:10.735Z,0.00
2022-08-14T02:22:10.724Z,0.00
2022-08-14T02:23:11.367Z,0.00
2022-08-14T02:24:38.308Z,0.00
2022-08-14T02:25:10.758Z,0.00
2022-08-14T02:26:24.189Z,0.00
2022-08-14T02:28:23.307Z,0.00
2022-08-14T02:28:23.505Z,0.00
2022-08-14T02:29:10.659Z,0.00
2022-08-14T02:30:10.653Z,0.00
2022-08-14T02:31:10.641Z,0.00
2022-08-14T02:32:10.660Z,0.00
2022-08-14T02:33:10.677Z,0.00
2022-08-14T02:34:20.152Z,0.00
2022-08-14T02:35:10.608Z,0.00
2022-08-14T02:37:03.901Z,0.00
2022-08-14T02:37:10.802Z,0.00
2022-08-14T02:38:11.448Z,0.00
2022-08-14T02:39:10.571Z,0.00
2022-08-14T02:40:10.559Z,0.00
2022-08-14T02:41:11.211Z,0.00
2022-08-14T02:42:13.165Z,0.00
2022-08-14T02:43:10.559Z,0.00
2022-08-14T02:44:10.524Z,0.00
2022-08-14T02:45:10.513Z,0.00
2022-08-14T02:46:10.506Z,0.00
2022-08-14T02:47:15.039Z,0.00
2022-08-14T02:49:04.825Z,0.00
2022-08-14T02:49:10.476Z,0.00
2022-08-14T02:50:10.471Z,0.00
2022-08-14T02:51:10.467Z,0.00
2022-08-14T02:52:26.874Z,0.00
2022-08-14T02:53:10.443Z,0.00
2022-08-14T02:54:13.006Z,0.00
2022-08-14T02:55:10.424Z,0.00
2022-08-14T02:56:30.163Z,0.00
2022-08-14T02:57:39.410Z,0.00
2022-08-14T02:58:10.393Z,0.00
2022-08-14T02:59:10.388Z,0.00
2022-08-14T03:00:10.374Z,0.00
2022-08-14T03:01:10.445Z,0.00
2022-08-14T03:02:48.943Z,0.00
2022-08-14T03:03:10.352Z,0.00
2022-08-14T03:04:10.503Z,0.00
2022-08-14T03:05:10.330Z,0.00
2022-08-14T03:06:10.321Z,0.00
2022-08-14T03:07:10.321Z,0.00
2022-08-14T03:08:11.261Z,0.00
2022-08-14T03:09:10.303Z,0.00
2022-08-14T03:10:27.458Z,0.00
2022-08-14T03:11:10.284Z,0.00
2022-08-14T03:12:10.264Z,0.00
2022-08-14T03:13:13.692Z,0.00
2022-08-14T03:14:10.244Z,0.00
2022-08-14T03:15:13.840Z,0.00
2022-08-14T03:16:20.004Z,0.00
2022-08-14T03:17:10.219Z,0.00
2022-08-14T03:18:10.214Z,0.00
2022-08-14T03:19:11.787Z,0.00
2022-08-14T03:20:11.081Z,0.00
2022-08-14T03:21:10.204Z,0.00
2022-08-14T03:22:17.418Z,0.00
2022-08-14T03:23:10.191Z,0.00
2022-08-14T03:24:21.439Z,0.00
2022-08-14T03:25:10.144Z,0.00
2022-08-14T03:26:13.311Z,0.00
2022-08-14T03:27:10.128Z,0.00
2022-08-14T03:28:14.640Z,0.00
2022-08-14T03:29:13.876Z,0.00
2022-08-14T03:30:14.540Z,0.00
2022-08-14T03:31:13.204Z,0.00
2022-08-14T03:32:10.078Z,0.00
2022-08-14T03:33:10.434Z,0.00
2022-08-14T03:34:10.292Z,0.00
2022-08-14T03:35:10.055Z,0.00
2022-08-14T03:37:38.906Z,0.00
2022-08-14T03:37:51.989Z,0.00
2022-08-14T03:39:14.764Z,0.00
2022-08-14T03:39:21.298Z,0.00
2022-08-14T03:40:11.258Z,0.00
2022-08-14T03:41:09.994Z,0.00
2022-08-14T03:42:13.413Z,0.00
2022-08-14T03:43:09.974Z,0.00
2022-08-14T03:45:18.578Z,0.00
2022-08-14T03:45:20.036Z,4.00
2022-08-14T03:46:38.579Z,4.00
2022-08-14T03:47:11.841Z,0.00
2022-08-14T03:48:11.002Z,0.00
2022-08-14T03:49:09.918Z,0.00
2022-08-14T03:50:09.923Z,4.00
2022-08-14T03:51:09.902Z,0.00
2022-08-14T03:52:37.947Z,0.00
2022-08-14T03:53:09.881Z,4.00
2022-08-14T03:54:10.983Z,0.00
2022-08-14T03:55:09.864Z,4.00
2022-08-14T03:56:09.854Z,4.00
2022-08-14T03:57:09.892Z,4.00
2022-08-14T03:58:09.840Z,4.00
2022-08-14T03:59:10.376Z,4.00
2022-08-14T04:00:13.588Z,8.00
2022-08-14T04:01:09.839Z,8.00
2022-08-14T04:02:33.272Z,8.00
2022-08-14T04:03:09.800Z,8.00
2022-08-14T04:04:09.821Z,8.00
2022-08-14T04:05:12.997Z,12.00
2022-08-14T04:06:09.818Z,8.00
2022-08-14T04:07:09.761Z,12.00
2022-08-14T04:08:29.602Z,12.00
2022-08-14T04:09:09.735Z,16.00
2022-08-14T04:10:09.727Z,16.00
2022-08-14T04:11:10.219Z,16.00
2022-08-14T04:12:13.478Z,20.00
2022-08-14T04:13:09.698Z,20.00
2022-08-14T04:14:09.740Z,24.00
2022-08-14T04:15:09.678Z,24.00
2022-08-14T04:16:10.152Z,24.00
2022-08-14T04:17:09.880Z,28.00
2022-08-14T04:18:09.655Z,32.00
2022-08-14T04:19:09.640Z,28.00
2022-08-14T04:20:10.012Z,32.00
2022-08-14T04:21:09.623Z,40.00
2022-08-14T04:22:09.612Z,40.00
2022-08-14T04:23:15.489Z,40.00
2022-08-14T04:24:09.600Z,44.00
2022-08-14T04:25:09.636Z,48.00
2022-08-14T04:26:14.848Z,48.00
2022-08-14T04:27:09.961Z,48.00
2022-08-14T04:28:09.559Z,52.00
2022-08-14T04:29:14.947Z,56.00
2022-08-14T04:30:09.544Z,60.00
2022-08-14T04:31:09.529Z,60.00
2022-08-14T04:32:58.581Z,64.00
2022-08-14T04:33:17.072Z,68.00
2022-08-14T04:34:16.952Z,68.00
2022-08-14T04:35:11.094Z,72.00
2022-08-14T04:36:09.482Z,76.00
2022-08-14T04:37:09.502Z,76.00
2022-08-14T04:38:37.319Z,80.00
2022-08-14T04:39:09.452Z,80.00
2022-08-14T04:40:09.452Z,84.00
2022-08-14T04:41:09.436Z,88.00
2022-08-14T04:42:13.952Z,88.00
2022-08-14T04:43:09.417Z,88.00
2022-08-14T04:44:09.410Z,92.00
2022-08-14T04:45:09.396Z,96.00
2022-08-14T04:46:09.389Z,100.00
2022-08-14T04:47:09.381Z,100.00
2022-08-14T04:48:10.205Z,104.00
2022-08-14T04:49:09.390Z,104.00
2022-08-14T04:50:09.376Z,108.00
2022-08-14T04:51:09.413Z,112.00
2022-08-14T04:52:15.555Z,112.00
2022-08-14T04:53:09.320Z,112.00
2022-08-14T04:54:09.313Z,116.00
2022-08-14T04:55:09.302Z,120.00
2022-08-14T04:56:10.582Z,120.00
2022-08-14T04:57:09.286Z,124.00
2022-08-14T04:58:09.274Z,128.00
2022-08-14T04:59:10.287Z,128.00
2022-08-14T05:00:16.193Z,132.00
2022-08-14T05:01:12.968Z,136.00
2022-08-14T05:02:09.346Z,136.00
2022-08-14T05:03:09.227Z,144.00
2022-08-14T05:04:16.173Z,144.00
2022-08-14T05:05:09.207Z,148.00
2022-08-14T05:06:38.186Z,152.00
2022-08-14T05:07:09.188Z,152.00
2022-08-14T05:08:09.687Z,156.00
2022-08-14T05:09:14.013Z,156.00
2022-08-14T05:10:13.078Z,164.00
2022-08-14T05:11:11.912Z,164.00
2022-08-14T05:13:13.189Z,168.00
2022-08-14T05:13:24.312Z,172.00
2022-08-14T05:14:34.573Z,172.00
2022-08-14T05:15:09.114Z,176.00
2022-08-14T05:16:09.243Z,180.00
2022-08-14T05:17:09.095Z,176.00
2022-08-14T05:18:37.065Z,184.00
2022-08-14T05:19:24.302Z,184.00
2022-08-14T05:21:54.860Z,184.00
2022-08-14T05:21:55.895Z,184.00
2022-08-14T05:22:16.413Z,188.00
2022-08-14T05:23:11.168Z,192.00
2022-08-14T05:24:09.032Z,188.00
2022-08-14T05:25:09.028Z,192.00
2022-08-14T05:26:09.012Z,196.00
2022-08-14T05:27:09.006Z,196.00
2022-08-14T05:28:12.478Z,200.00
2022-08-14T05:29:11.900Z,204.00
2022-08-14T05:30:08.975Z,204.00
2022-08-14T05:31:08.968Z,208.00
2022-08-14T05:32:08.957Z,212.00
2022-08-14T05:33:08.944Z,212.00
2022-08-14T05:34:08.943Z,212.00
2022-08-14T05:35:08.928Z,212.00
2022-08-14T05:36:16.883Z,216.00
2022-08-14T05:37:08.908Z,216.00
2022-08-14T05:38:10.766Z,216.00
2022-08-14T05:39:08.892Z,220.00
2022-08-14T05:40:08.917Z,220.00
2022-08-14T05:41:08.917Z,224.00
2022-08-14T05:42:10.028Z,224.00
2022-08-14T05:43:08.879Z,228.00
2022-08-14T05:44:08.844Z,224.00
2022-08-14T05:45:11.266Z,232.00
2022-08-14T05:46:08.879Z,232.00
2022-08-14T05:47:08.814Z,236.00
2022-08-14T05:48:09.551Z,236.00
2022-08-14T05:49:09.118Z,240.00
2022-08-14T05:50:17.144Z,248.00
2022-08-14T05:51:08.787Z,248.00
2022-08-14T05:52:09.955Z,252.00
2022-08-14T05:53:08.816Z,256.00
2022-08-14T05:54:13.911Z,256.00
2022-08-14T05:55:08.745Z,264.00
2022-08-14T05:56:08.755Z,268.00
2022-08-14T05:57:08.723Z,272.00
2022-08-14T05:58:08.716Z,276.00
2022-08-14T05:59:08.759Z,280.00
2022-08-14T06:00:08.699Z,288.00
2022-08-14T06:01:08.740Z,292.00
2022-08-14T06:02:10.401Z,296.00
2022-08-14T06:03:08.668Z,304.00
2022-08-14T06:04:08.660Z,316.00
2022-08-14T06:05:08.655Z,312.00
2022-08-14T06:06:08.647Z,308.00
2022-08-14T06:07:09.547Z,308.00
2022-08-14T06:08:31.373Z,312.00
2022-08-14T06:09:09.826Z,304.00
2022-08-14T06:10:08.613Z,312.00
2022-08-14T06:11:08.647Z,308.00
2022-08-14T06:12:08.609Z,308.00
2022-08-14T06:13:08.802Z,300.00
2022-08-14T06:14:20.637Z,308.00
2022-08-14T06:15:08.562Z,312.00
2022-08-14T06:16:08.573Z,324.00
2022-08-14T06:17:08.597Z,332.00
2022-08-14T06:18:08.534Z,336.00
2022-08-14T06:19:11.466Z,336.00
2022-08-14T06:20:10.306Z,344.00
2022-08-14T06:21:12.996Z,344.00
2022-08-14T06:22:08.888Z,344.00
2022-08-14T06:23:08.488Z,348.00
2022-08-14T06:24:10.628Z,344.00
2022-08-14T06:25:08.470Z,348.00
2022-08-14T06:26:08.463Z,348.00
2022-08-14T06:27:10.077Z,364.00
2022-08-14T06:28:27.154Z,364.00
2022-08-14T06:29:08.450Z,352.00
2022-08-14T06:30:08.426Z,356.00
2022-08-14T06:31:08.413Z,372.00
2022-08-14T06:32:38.134Z,376.00
2022-08-14T06:33:08.397Z,384.00
2022-08-14T06:35:03.560Z,384.00
2022-08-14T06:35:12.230Z,384.00
2022-08-14T06:36:08.377Z,372.00
2022-08-14T06:37:08.363Z,376.00
2022-08-14T06:38:08.356Z,360.00
2022-08-14T06:39:10.556Z,364.00
2022-08-14T06:40:08.402Z,368.00
2022-08-14T06:41:10.888Z,352.00
2022-08-14T06:42:08.322Z,348.00
2022-08-14T06:43:08.310Z,336.00
2022-08-14T06:44:09.551Z,340.00
2022-08-14T06:45:08.293Z,356.00
2022-08-14T06:46:12.875Z,384.00
2022-08-14T06:47:08.274Z,400.00
2022-08-14T06:48:12.926Z,404.00
2022-08-14T06:49:08.300Z,400.00
2022-08-14T06:50:08.247Z,384.00
2022-08-14T06:51:08.238Z,368.00
2022-08-14T06:52:08.233Z,384.00
2022-08-14T06:53:08.226Z,400.00
2022-08-14T06:54:08.479Z,400.00
2022-08-14T06:55:08.265Z,400.00
2022-08-14T06:56:08.197Z,404.00
2022-08-14T06:57:08.187Z,380.00
2022-08-14T06:58:08.185Z,384.00
2022-08-14T06:59:08.169Z,404.00
2022-08-14T07:00:08.161Z,396.00
2022-08-14T07:01:08.177Z,376.00
2022-08-14T07:02:13.173Z,360.00
2022-08-14T07:03:08.138Z,364.00
2022-08-14T07:04:12.852Z,376.00
2022-08-14T07:05:08.119Z,368.00
2022-08-14T07:06:11.707Z,392.00
2022-08-14T07:07:08.100Z,460.00
2022-08-14T07:08:08.091Z,520.00
2022-08-14T07:09:08.105Z,540.00
2022-08-14T07:10:08.078Z,536.00
2022-08-14T07:11:08.068Z,492.00
2022-08-14T07:12:08.075Z,440.00
2022-08-14T07:13:08.261Z,516.00
2022-08-14T07:14:08.046Z,536.00
2022-08-14T07:15:08.031Z,512.00
2022-08-14T07:16:08.123Z,576.00
2022-08-14T07:17:08.014Z,536.00
2022-08-14T07:18:08.726Z,460.00
2022-08-14T07:19:08.043Z,396.00
2022-08-14T07:20:08.040Z,408.00
2022-08-14T07:21:08.024Z,404.00
2022-08-14T07:22:17.793Z,480.00
2022-08-14T07:23:10.894Z,592.00
2022-08-14T07:24:09.599Z,612.00
2022-08-14T07:25:07.947Z,604.00
2022-08-14T07:26:07.943Z,576.00
2022-08-14T07:27:07.952Z,516.00
2022-08-14T07:28:07.961Z,436.00
2022-08-14T07:29:07.918Z,448.00
2022-08-14T07:30:08.992Z,476.00
2022-08-14T07:31:07.899Z,460.00
2022-08-14T07:32:08.045Z,456.00
2022-08-14T07:33:07.882Z,484.00
2022-08-14T07:34:07.870Z,472.00
2022-08-14T07:35:07.865Z,472.00
2022-08-14T07:36:25.414Z,468.00
2022-08-14T07:37:07.848Z,472.00
2022-08-14T07:38:07.866Z,476.00
2022-08-14T07:39:12.511Z,448.00
2022-08-14T07:40:07.941Z,452.00
2022-08-14T07:41:14.460Z,468.00
2022-08-14T07:42:07.822Z,480.00
2022-08-14T07:43:14.399Z,480.00
2022-08-14T07:44:33.084Z,456.00
2022-08-14T07:45:07.783Z,576.00
2022-08-14T07:46:07.773Z,464.00
2022-08-14T07:47:07.766Z,504.00
2022-08-14T07:48:07.759Z,448.00
2022-08-14T07:49:07.753Z,460.00
2022-08-14T07:50:07.743Z,436.00
2022-08-14T07:51:11.189Z,440.00
2022-08-14T07:52:08.072Z,444.00
2022-08-14T07:53:07.716Z,448.00
2022-08-14T07:54:11.384Z,480.00
2022-08-14T07:55:07.700Z,480.00
2022-08-14T07:56:21.629Z,568.00
2022-08-14T07:57:12.181Z,564.00
2022-08-14T07:58:31.745Z,640.00
2022-08-14T07:59:09.138Z,540.00
2022-08-14T08:00:07.693Z,572.00
2022-08-14T08:01:07.654Z,748.00
2022-08-14T08:02:07.651Z,576.00
2022-08-14T08:03:07.655Z,564.00
2022-08-14T08:04:16.763Z,616.00
2022-08-14T08:05:07.646Z,644.00
2022-08-14T08:06:10.511Z,1008.00
2022-08-14T08:07:07.603Z,964.00
2022-08-14T08:08:08.266Z,644.00
2022-08-14T08:09:07.591Z,1444.00
2022-08-14T08:10:07.609Z,1212.00
2022-08-14T08:11:08.402Z,900.00
2022-08-14T08:12:09.510Z,1164.00
2022-08-14T08:13:07.565Z,1224.00
2022-08-14T08:14:16.368Z,1048.00
2022-08-14T08:15:08.011Z,832.00
2022-08-14T08:16:07.535Z,944.00
2022-08-14T08:17:07.526Z,1240.00
2022-08-14T08:18:07.516Z,624.00
2022-08-14T08:19:12.900Z,620.00
2022-08-14T08:20:09.058Z,708.00
2022-08-14T08:21:07.508Z,716.00
2022-08-14T08:22:07.487Z,592.00
2022-08-14T08:23:07.477Z,540.00
2022-08-14T08:24:07.475Z,560.00
2022-08-14T08:25:13.920Z,556.00
2022-08-14T08:26:07.487Z,556.00
2022-08-14T08:27:07.457Z,588.00
2022-08-14T08:28:08.472Z,588.00
2022-08-14T08:29:07.436Z,640.00
2022-08-14T08:30:10.335Z,736.00
2022-08-14T08:31:08.198Z,1040.00
2022-08-14T08:32:07.412Z,776.00
2022-08-14T08:33:07.402Z,5096.00
2022-08-14T08:34:07.396Z,6808.00
2022-08-14T08:35:07.387Z,2764.00
2022-08-14T08:36:07.960Z,4252.00
2022-08-14T08:37:07.540Z,1192.00
2022-08-14T08:39:14.236Z,828.00
2022-08-14T08:39:18.872Z,1216.00
2022-08-14T08:40:07.392Z,864.00
2022-08-14T08:41:09.659Z,724.00
2022-08-14T08:42:07.338Z,760.00
2022-08-14T08:43:07.328Z,1232.00
2022-08-14T08:44:31.332Z,1124.00
2022-08-14T08:45:11.861Z,1052.00
2022-08-14T08:46:07.306Z,916.00
2022-08-14T08:47:07.300Z,1444.00
2022-08-14T08:48:17.909Z,1508.00
2022-08-14T08:49:07.310Z,700.00
2022-08-14T08:50:23.442Z,1004.00
2022-08-14T08:51:07.308Z,2012.00
2022-08-14T08:52:07.263Z,2304.00
2022-08-14T08:53:07.253Z,3316.00
2022-08-14T08:54:08.986Z,2992.00
2022-08-14T08:55:07.241Z,3648.00
2022-08-14T08:56:07.240Z,4404.00
2022-08-14T08:57:07.225Z,3052.00
2022-08-14T08:58:16.141Z,1376.00
2022-08-14T08:59:07.212Z,5360.00
2022-08-14T09:00:10.067Z,4880.00
2022-08-14T09:01:07.234Z,1504.00
2022-08-14T09:02:07.190Z,2532.00
2022-08-14T09:03:07.184Z,1448.00
2022-08-14T09:04:13.942Z,1544.00
2022-08-14T09:05:07.174Z,1140.00
2022-08-14T09:06:53.744Z,852.00
2022-08-14T09:07:10.118Z,940.00
2022-08-14T09:08:08.171Z,912.00
2022-08-14T09:09:07.143Z,1444.00
2022-08-14T09:10:07.134Z,1228.00
2022-08-14T09:11:18.766Z,2148.00
2022-08-14T09:12:07.124Z,2040.00
2022-08-14T09:13:07.115Z,1260.00
2022-08-14T09:14:07.114Z,1132.00
2022-08-14T09:15:12.326Z,1116.00
2022-08-14T09:16:19.276Z,892.00
2022-08-14T09:17:07.088Z,1584.00
2022-08-14T09:18:07.082Z,4656.00
2022-08-14T09:19:07.073Z,1152.00
2022-08-14T09:20:07.104Z,920.00
2022-08-14T09:21:07.181Z,1188.00
2022-08-14T09:22:34.827Z,1400.00
2022-08-14T09:23:07.069Z,1868.00
2022-08-14T09:24:28.368Z,1296.00
2022-08-14T09:25:07.640Z,844.00
2022-08-14T09:26:20.914Z,1412.00
2022-08-14T09:27:07.062Z,1248.00
2022-08-14T09:28:07.011Z,1360.00
2022-08-14T09:29:07.004Z,868.00
2022-08-14T09:30:31.633Z,892.00
2022-08-14T09:31:08.579Z,876.00
2022-08-14T09:32:57.697Z,1724.00
2022-08-14T09:33:11.572Z,2592.00
2022-08-14T09:34:09.383Z,3236.00
2022-08-14T09:35:08.465Z,8176.00
2022-08-14T09:36:06.960Z,2728.00
2022-08-14T09:37:07.175Z,3312.00
2022-08-14T09:38:06.972Z,1688.00
2022-08-14T09:39:09.632Z,2652.00
2022-08-14T09:40:06.976Z,2256.00
2022-08-14T09:41:06.923Z,1968.00
2022-08-14T09:42:20.119Z,3116.00
2022-08-14T09:43:06.942Z,3508.00
2022-08-14T09:44:06.907Z,6184.00
2022-08-14T09:45:08.900Z,6724.00
2022-08-14T09:46:06.905Z,6848.00
2022-08-14T09:47:06.890Z,5764.00
2022-08-14T09:48:06.897Z,2788.00
2022-08-14T09:49:07.100Z,1520.00
2022-08-14T09:50:06.869Z,4028.00
2022-08-14T09:51:32.653Z,2428.00
2022-08-14T09:52:06.861Z,2096.00
2022-08-14T09:53:18.101Z,4080.00
2022-08-14T09:54:19.164Z,5788.00
2022-08-14T09:55:06.871Z,3996.00
2022-08-14T09:56:10.134Z,1316.00
2022-08-14T09:57:06.828Z,2428.00
2022-08-14T09:58:06.819Z,1292.00
2022-08-14T09:59:06.817Z,1192.00
2022-08-14T10:00:06.842Z,1068.00
2022-08-14T10:01:06.960Z,1592.00
2022-08-14T10:02:06.827Z,1608.00
2022-08-14T10:03:06.836Z,1604.00
2022-08-14T10:04:06.785Z,1820.00
2022-08-14T10:05:08.712Z,1856.00
2022-08-14T10:06:06.773Z,1456.00
2022-08-14T10:07:08.464Z,3324.00
2022-08-14T10:08:06.835Z,8896.00
2022-08-14T10:09:11.855Z,9908.00
2022-08-14T10:10:23.077Z,1160.00
2022-08-14T10:11:06.751Z,8216.00
2022-08-14T10:12:06.779Z,9240.00
2022-08-14T10:13:06.736Z,1736.00
2022-08-14T10:14:06.735Z,6028.00
2022-08-14T10:15:06.729Z,1732.00
2022-08-14T10:16:07.667Z,1968.00
2022-08-14T10:17:08.415Z,804.00
2022-08-14T10:18:06.743Z,804.00
2022-08-14T10:19:07.161Z,1400.00
2022-08-14T10:20:06.709Z,6124.00
2022-08-14T10:21:09.574Z,1704.00
2022-08-14T10:23:15.598Z,1208.00
2022-08-14T10:23:23.134Z,1364.00
2022-08-14T10:24:06.688Z,1748.00
2022-08-14T10:25:06.684Z,13952.00
2022-08-14T10:26:06.685Z,1392.00
2022-08-14T10:27:06.682Z,1276.00
2022-08-14T10:28:06.716Z,5776.00
2022-08-14T10:29:20.017Z,1808.00
2022-08-14T10:30:06.663Z,2936.00
2022-08-14T10:31:06.663Z,2940.00
2022-08-14T10:32:17.291Z,2448.00
2022-08-14T10:33:07.070Z,4324.00
2022-08-14T10:34:13.281Z,5060.00
2022-08-14T10:35:06.661Z,5732.00
2022-08-14T10:36:06.636Z,3812.00
2022-08-14T10:37:14.240Z,3224.00
2022-08-14T10:38:07.352Z,1084.00
2022-08-14T10:39:06.625Z,1012.00
2022-08-14T10:40:36.935Z,1048.00
2022-08-14T10:41:06.654Z,1524.00
2022-08-14T10:42:14.673Z,1520.00
2022-08-14T10:43:06.609Z,1264.00
2022-08-14T10:44:06.640Z,1224.00
2022-08-14T10:45:06.596Z,1672.00
2022-08-14T10:47:36.856Z,1048.00
2022-08-14T10:47:40.604Z,1128.00
2022-08-14T10:48:09.951Z,1068.00
2022-08-14T10:49:06.614Z,1288.00
2022-08-14T10:50:06.573Z,3076.00
2022-08-14T10:51:08.664Z,1728.00
2022-08-14T10:52:06.565Z,1652.00
2022-08-14T10:53:08.073Z,1556.00
2022-08-14T10:54:17.066Z,1140.00
2022-08-14T10:55:06.573Z,1456.00
2022-08-14T10:56:06.538Z,876.00
2022-08-14T10:57:07.448Z,952.00
2022-08-14T10:58:06.579Z,1556.00
2022-08-14T10:59:06.529Z,808.00
2022-08-14T11:00:06.516Z,1408.00
2022-08-14T11:01:06.551Z,1504.00
2022-08-14T11:02:06.534Z,3880.00
2022-08-14T11:03:06.505Z,1568.00
2022-08-14T11:04:06.534Z,976.00
2022-08-14T11:05:06.685Z,1008.00
2022-08-14T11:06:06.485Z,1092.00
2022-08-14T11:07:06.483Z,1028.00
2022-08-14T11:08:09.221Z,1064.00
2022-08-14T11:09:06.501Z,1120.00
2022-08-14T11:10:06.464Z,992.00
2022-08-14T11:11:06.556Z,1044.00
2022-08-14T11:12:44.130Z,1004.00
2022-08-14T11:13:06.449Z,1428.00
2022-08-14T11:14:06.443Z,1252.00
2022-08-14T11:15:06.477Z,1300.00
2022-08-14T11:16:07.067Z,1088.00
2022-08-14T11:17:06.429Z,1108.00
2022-08-14T11:18:06.420Z,1024.00
2022-08-14T11:19:06.443Z,1260.00
2022-08-14T11:20:06.410Z,1072.00
2022-08-14T11:21:06.433Z,1040.00
2022-08-14T11:22:06.548Z,988.00
2022-08-14T11:23:06.480Z,980.00
2022-08-14T11:24:54.605Z,964.00
2022-08-14T11:25:06.589Z,2944.00
2022-08-14T11:26:07.012Z,1620.00
2022-08-14T11:27:06.376Z,3736.00
2022-08-14T11:28:06.430Z,5176.00
2022-08-14T11:29:06.364Z,6448.00
2022-08-14T11:30:51.296Z,14132.00
2022-08-14T11:31:06.355Z,14496.00
2022-08-14T11:32:06.714Z,6168.00
2022-08-14T11:33:06.345Z,3452.00
2022-08-14T11:34:10.271Z,14160.00
2022-08-14T11:35:06.333Z,17568.00
2022-08-14T11:36:17.123Z,16416.00
2022-08-14T11:37:18.712Z,10456.00
2022-08-14T11:38:06.317Z,6364.00
2022-08-14T11:39:10.747Z,3168.00
2022-08-14T11:40:06.365Z,8484.00
2022-08-14T11:41:06.306Z,13444.00
2022-08-14T11:42:55.302Z,5892.00
2022-08-14T11:43:06.373Z,2188.00
2022-08-14T11:44:17.584Z,1740.00
2022-08-14T11:45:11.519Z,3284.00
2022-08-14T11:46:06.423Z,1960.00
2022-08-14T11:47:07.078Z,1092.00
2022-08-14T11:48:13.141Z,1156.00
2022-08-14T11:49:06.811Z,984.00
2022-08-14T11:50:06.312Z,2940.00
2022-08-14T11:51:06.294Z,2276.00
2022-08-14T11:52:06.259Z,1472.00
2022-08-14T11:53:06.836Z,2368.00
2022-08-14T11:54:06.275Z,1116.00
2022-08-14T11:55:06.247Z,2264.00
2022-08-14T11:56:06.354Z,1688.00
2022-08-14T11:57:06.264Z,1504.00
2022-08-14T11:58:06.231Z,2460.00
2022-08-14T11:59:06.232Z,2296.00
2022-08-14T12:00:06.271Z,1752.00
2022-08-14T12:01:06.222Z,1672.00
2022-08-14T12:02:06.277Z,1668.00
2022-08-14T12:03:06.560Z,1812.00
2022-08-14T12:04:06.234Z,2292.00
2022-08-14T12:05:09.682Z,1904.00
2022-08-14T12:06:06.209Z,1752.00
2022-08-14T12:07:06.214Z,1600.00
2022-08-14T12:08:06.776Z,1924.00
2022-08-14T12:09:08.747Z,1636.00
2022-08-14T12:10:26.412Z,2384.00
2022-08-14T12:11:06.195Z,2128.00
2022-08-14T12:12:06.164Z,10372.00
2022-08-14T12:13:06.158Z,1268.00
2022-08-14T12:14:06.157Z,17024.00
2022-08-14T12:15:07.234Z,2756.00
2022-08-14T12:16:06.608Z,3988.00
2022-08-14T12:17:06.139Z,8272.00
2022-08-14T12:18:06.294Z,1516.00
2022-08-14T12:19:06.134Z,1164.00
2022-08-14T12:20:06.158Z,1156.00
2022-08-14T12:21:06.128Z,1184.00
2022-08-14T12:22:06.665Z,1176.00
2022-08-14T12:23:06.116Z,1192.00
2022-08-14T12:24:06.127Z,1188.00
2022-08-14T12:25:10.708Z,3344.00
2022-08-14T12:26:31.903Z,1324.00
2022-08-14T12:27:06.098Z,1184.00
2022-08-14T12:28:06.425Z,1196.00
2022-08-14T12:29:06.117Z,1020.00
2022-08-14T12:30:06.090Z,1272.00
2022-08-14T12:31:06.080Z,1508.00
2022-08-14T12:32:06.081Z,1328.00
2022-08-14T12:33:06.094Z,1488.00
2022-08-14T12:34:10.095Z,1416.00
2022-08-14T12:35:06.062Z,1436.00
2022-08-14T12:36:06.456Z,1492.00
2022-08-14T12:37:06.208Z,1448.00